sensor_id;sensor_type;location;lat;lon;timestamp;temperature;humidity
44559;DHT22;30270;40.238;18.256;2022-10-16T00:01:46;17.30;99.90
44559;DHT22;30270;40.238;18.256;2022-10-16T00:04:14;17.30;99.90
44559;DHT22;30270;40.238;18.256;2022-10-16T00:06:41;17.40;99.90
44559;DHT22;30270;40.238;18.256;2022-10-16T00:09:10;17.40;99.90
44559;DHT22;30270;40.238;18.256;2022-10-16T00:11:39;17.30;99.90
44559;DHT22;30270;40.238;18.256;2022-10-16T00:14:10;17.40;99.90
44559;DHT22;30270;40.238;18.256;2022-10-16T00:16:38;17.30;99.90
44559;DHT22;30270;40.238;18.256;2022-10-16T00:19:06;17.30;99.90
44559;DHT22;30270;40.238;18.256;2022-10-16T00:21:34;17.30;99.90
44559;DHT22;30270;40.238;18.256;2022-10-16T00:24:20;17.30;99.90
44559;DHT22;30270;40.238;18.256;2022-10-16T00:26:49;17.30;99.90
44559;DHT22;30270;40.238;18.256;2022-10-16T00:29:17;17.30;99.90
44559;DHT22;30270;40.238;18.256;2022-10-16T00:31:44;17.30;99.90
44559;DHT22;30270;40.238;18.256;2022-10-16T00:34:12;17.30;99.90
44559;DHT22;30270;40.238;18.256;2022-10-16T00:36:39;17.30;99.90
44559;DHT22;30270;40.238;18.256;2022-10-16T00:39:07;17.30;99.90
44559;DHT22;30270;40.238;18.256;2022-10-16T00:41:35;17.30;99.90
44559;DHT22;30270;40.238;18.256;2022-10-16T00:47:17;17.30;99.90
44559;DHT22;30270;40.238;18.256;2022-10-16T00:49:47;17.30;99.90
44559;DHT22;30270;40.238;18.256;2022-10-16T00:52:17;17.30;99.90
44559;DHT22;30270;40.238;18.256;2022-10-16T00:54:46;17.30;99.90
44559;DHT22;30270;40.238;18.256;2022-10-16T00:57:14;17.30;99.90
44559;DHT22;30270;40.238;18.256;2022-10-16T00:59:42;17.30;99.90
44559;DHT22;30270;40.238;18.256;2022-10-16T01:02:13;17.30;99.90
44559;DHT22;30270;40.238;18.256;2022-10-16T01:04:50;17.20;99.90
44559;DHT22;30270;40.238;18.256;2022-10-16T01:15:55;17.30;99.90
44559;DHT22;30270;40.238;18.256;2022-10-16T01:23:51;17.20;99.90
44559;DHT22;30270;40.238;18.256;2022-10-16T01:29:49;17.20;99.90
44559;DHT22;30270;40.238;18.256;2022-10-16T01:32:40;17.10;99.90
44559;DHT22;30270;40.238;18.256;2022-10-16T01:35:27;17.10;99.90
44559;DHT22;30270;40.238;18.256;2022-10-16T01:38:29;17.10;99.90
44559;DHT22;30270;40.238;18.256;2022-10-16T01:41:01;17.10;99.90
44559;DHT22;30270;40.238;18.256;2022-10-16T01:43:38;17.10;99.90
44559;DHT22;30270;40.238;18.256;2022-10-16T01:46:08;17.10;99.90
44559;DHT22;30270;40.238;18.256;2022-10-16T01:48:37;17.00;99.90
44559;DHT22;30270;40.238;18.256;2022-10-16T01:51:08;17.00;99.90
44559;DHT22;30270;40.238;18.256;2022-10-16T01:53:43;17.00;99.90
44559;DHT22;30270;40.238;18.256;2022-10-16T01:56:15;17.00;99.90
44559;DHT22;30270;40.238;18.256;2022-10-16T01:58:51;17.00;99.90
44559;DHT22;30270;40.238;18.256;2022-10-16T02:01:22;17.00;99.90
44559;DHT22;30270;40.238;18.256;2022-10-16T02:03:54;17.00;99.90
44559;DHT22;30270;40.238;18.256;2022-10-16T02:06:24;17.00;99.90
44559;DHT22;30270;40.238;18.256;2022-10-16T02:08:53;17.00;99.90
44559;DHT22;30270;40.238;18.256;2022-10-16T02:11:21;17.00;99.90
44559;DHT22;30270;40.238;18.256;2022-10-16T02:13:53;16.90;99.90
44559;DHT22;30270;40.238;18.256;2022-10-16T02:16:32;16.90;99.90
44559;DHT22;30270;40.238;18.256;2022-10-16T02:19:00;16.90;99.90
44559;DHT22;30270;40.238;18.256;2022-10-16T02:21:35;16.80;99.90
44559;DHT22;30270;40.238;18.256;2022-10-16T02:29:25;16.70;99.90
44559;DHT22;30270;40.238;18.256;2022-10-16T02:32:00;16.70;99.90
44559;DHT22;30270;40.238;18.256;2022-10-16T02:34:30;16.60;99.90
44559;DHT22;30270;40.238;18.256;2022-10-16T02:37:01;16.60;99.90
44559;DHT22;30270;40.238;18.256;2022-10-16T02:39:29;16.60;99.90
44559;DHT22;30270;40.238;18.256;2022-10-16T02:41:57;16.50;99.90
44559;DHT22;30270;40.238;18.256;2022-10-16T02:44:25;16.50;99.90
44559;DHT22;30270;40.238;18.256;2022-10-16T02:46:53;16.50;99.90
44559;DHT22;30270;40.238;18.256;2022-10-16T02:49:20;16.50;99.90
44559;DHT22;30270;40.238;18.256;2022-10-16T02:51:48;16.50;99.90
44559;DHT22;30270;40.238;18.256;2022-10-16T02:54:15;16.50;99.90
44559;DHT22;30270;40.238;18.256;2022-10-16T02:56:43;16.50;99.90
44559;DHT22;30270;40.238;18.256;2022-10-16T02:59:11;16.50;99.90
44559;DHT22;30270;40.238;18.256;2022-10-16T03:01:39;16.50;99.90
44559;DHT22;30270;40.238;18.256;2022-10-16T03:04:07;16.50;99.90
44559;DHT22;30270;40.238;18.256;2022-10-16T03:06:36;16.50;99.90
44559;DHT22;30270;40.238;18.256;2022-10-16T03:09:04;16.40;99.90
44559;DHT22;30270;40.238;18.256;2022-10-16T03:11:32;16.40;99.90
44559;DHT22;30270;40.238;18.256;2022-10-16T03:13:59;16.40;99.90
44559;DHT22;30270;40.238;18.256;2022-10-16T03:16:27;16.40;99.90
44559;DHT22;30270;40.238;18.256;2022-10-16T03:18:55;16.40;99.90
44559;DHT22;30270;40.238;18.256;2022-10-16T03:21:23;16.40;99.90
44559;DHT22;30270;40.238;18.256;2022-10-16T03:23:50;16.40;99.90
44559;DHT22;30270;40.238;18.256;2022-10-16T03:26:18;16.30;99.90
44559;DHT22;30270;40.238;18.256;2022-10-16T03:28:46;16.30;99.90
44559;DHT22;30270;40.238;18.256;2022-10-16T03:31:14;16.30;99.90
44559;DHT22;30270;40.238;18.256;2022-10-16T03:33:41;16.30;99.90
44559;DHT22;30270;40.238;18.256;2022-10-16T03:36:09;16.30;99.90
44559;DHT22;30270;40.238;18.256;2022-10-16T03:38:36;16.20;99.90
44559;DHT22;30270;40.238;18.256;2022-10-16T03:41:07;16.20;99.90
44559;DHT22;30270;40.238;18.256;2022-10-16T03:43:35;16.20;99.90
44559;DHT22;30270;40.238;18.256;2022-10-16T03:46:03;16.20;99.90
44559;DHT22;30270;40.238;18.256;2022-10-16T03:48:31;16.30;99.90
44559;DHT22;30270;40.238;18.256;2022-10-16T03:50:59;16.30;99.90
44559;DHT22;30270;40.238;18.256;2022-10-16T03:53:27;16.30;99.90
44559;DHT22;30270;40.238;18.256;2022-10-16T03:55:54;16.30;99.90
44559;DHT22;30270;40.238;18.256;2022-10-16T03:58:22;16.30;99.90
44559;DHT22;30270;40.238;18.256;2022-10-16T04:00:50;16.30;99.90
44559;DHT22;30270;40.238;18.256;2022-10-16T04:03:17;16.40;99.90
44559;DHT22;30270;40.238;18.256;2022-10-16T04:05:46;16.40;99.90
44559;DHT22;30270;40.238;18.256;2022-10-16T04:08:14;16.50;99.90
44559;DHT22;30270;40.238;18.256;2022-10-16T04:10:44;16.40;99.90
44559;DHT22;30270;40.238;18.256;2022-10-16T04:13:13;16.40;99.90
44559;DHT22;30270;40.238;18.256;2022-10-16T04:15:41;16.50;99.90
44559;DHT22;30270;40.238;18.256;2022-10-16T04:18:08;16.50;99.90
44559;DHT22;30270;40.238;18.256;2022-10-16T04:20:36;16.50;99.90
44559;DHT22;30270;40.238;18.256;2022-10-16T04:23:04;16.50;99.90
44559;DHT22;30270;40.238;18.256;2022-10-16T04:25:32;16.60;99.90
44559;DHT22;30270;40.238;18.256;2022-10-16T04:27:59;16.50;99.90
44559;DHT22;30270;40.238;18.256;2022-10-16T04:30:27;16.60;99.90
44559;DHT22;30270;40.238;18.256;2022-10-16T04:32:55;16.50;99.90
44559;DHT22;30270;40.238;18.256;2022-10-16T04:35:22;16.60;99.90
44559;DHT22;30270;40.238;18.256;2022-10-16T04:37:51;16.50;99.90
44559;DHT22;30270;40.238;18.256;2022-10-16T04:40:18;16.50;99.90
44559;DHT22;30270;40.238;18.256;2022-10-16T04:42:46;16.50;99.90
44559;DHT22;30270;40.238;18.256;2022-10-16T04:45:13;16.60;99.90
44559;DHT22;30270;40.238;18.256;2022-10-16T04:47:42;16.50;99.90
44559;DHT22;30270;40.238;18.256;2022-10-16T04:50:09;16.50;99.90
44559;DHT22;30270;40.238;18.256;2022-10-16T04:52:38;16.50;99.90
44559;DHT22;30270;40.238;18.256;2022-10-16T04:55:06;16.50;99.90
44559;DHT22;30270;40.238;18.256;2022-10-16T04:57:34;16.50;99.90
44559;DHT22;30270;40.238;18.256;2022-10-16T05:00:02;16.50;99.90
44559;DHT22;30270;40.238;18.256;2022-10-16T05:02:30;16.40;99.90
44559;DHT22;30270;40.238;18.256;2022-10-16T05:04:58;16.50;99.90
44559;DHT22;30270;40.238;18.256;2022-10-16T05:07:26;16.40;99.90
44559;DHT22;30270;40.238;18.256;2022-10-16T05:09:53;16.50;99.90
44559;DHT22;30270;40.238;18.256;2022-10-16T05:12:21;16.50;99.90
44559;DHT22;30270;40.238;18.256;2022-10-16T05:14:48;16.50;99.90
44559;DHT22;30270;40.238;18.256;2022-10-16T05:17:16;16.60;99.90
44559;DHT22;30270;40.238;18.256;2022-10-16T05:19:44;16.70;99.90
44559;DHT22;30270;40.238;18.256;2022-10-16T05:22:11;16.80;99.90
44559;DHT22;30270;40.238;18.256;2022-10-16T05:24:39;16.90;99.90
44559;DHT22;30270;40.238;18.256;2022-10-16T05:27:07;17.00;99.90
44559;DHT22;30270;40.238;18.256;2022-10-16T05:29:34;17.10;99.90
44559;DHT22;30270;40.238;18.256;2022-10-16T05:32:02;17.20;99.90
44559;DHT22;30270;40.238;18.256;2022-10-16T05:34:33;17.40;99.90
44559;DHT22;30270;40.238;18.256;2022-10-16T05:37:00;17.50;99.90
44559;DHT22;30270;40.238;18.256;2022-10-16T05:39:30;17.60;99.90
44559;DHT22;30270;40.238;18.256;2022-10-16T05:41:58;17.80;99.90
44559;DHT22;30270;40.238;18.256;2022-10-16T05:44:25;18.00;99.90
44559;DHT22;30270;40.238;18.256;2022-10-16T05:46:53;18.10;99.90
44559;DHT22;30270;40.238;18.256;2022-10-16T05:49:21;18.20;99.90
44559;DHT22;30270;40.238;18.256;2022-10-16T05:51:48;18.40;99.90
44559;DHT22;30270;40.238;18.256;2022-10-16T05:54:16;18.50;99.90
44559;DHT22;30270;40.238;18.256;2022-10-16T05:56:44;18.60;99.90
44559;DHT22;30270;40.238;18.256;2022-10-16T05:59:11;18.70;99.90
44559;DHT22;30270;40.238;18.256;2022-10-16T06:01:39;18.80;99.90
44559;DHT22;30270;40.238;18.256;2022-10-16T06:04:07;19.10;99.90
44559;DHT22;30270;40.238;18.256;2022-10-16T06:06:35;19.20;99.90
44559;DHT22;30270;40.238;18.256;2022-10-16T06:09:04;19.40;99.90
44559;DHT22;30270;40.238;18.256;2022-10-16T06:11:33;19.70;99.90
44559;DHT22;30270;40.238;18.256;2022-10-16T06:14:02;19.90;99.90
44559;DHT22;30270;40.238;18.256;2022-10-16T06:16:35;20.20;99.90
44559;DHT22;30270;40.238;18.256;2022-10-16T06:19:04;20.50;99.90
44559;DHT22;30270;40.238;18.256;2022-10-16T06:21:33;20.80;99.90
44559;DHT22;30270;40.238;18.256;2022-10-16T06:24:01;21.20;99.90
44559;DHT22;30270;40.238;18.256;2022-10-16T06:26:30;21.60;99.90
44559;DHT22;30270;40.238;18.256;2022-10-16T06:28:59;22.10;99.90
44559;DHT22;30270;40.238;18.256;2022-10-16T06:31:28;22.60;99.90
44559;DHT22;30270;40.238;18.256;2022-10-16T06:33:58;22.90;99.90
44559;DHT22;30270;40.238;18.256;2022-10-16T06:36:26;23.30;99.90
44559;DHT22;30270;40.238;18.256;2022-10-16T06:38:54;23.40;99.90
44559;DHT22;30270;40.238;18.256;2022-10-16T06:41:23;23.50;99.90
44559;DHT22;30270;40.238;18.256;2022-10-16T06:43:50;23.30;99.90
44559;DHT22;30270;40.238;18.256;2022-10-16T06:46:21;23.30;99.90
44559;DHT22;30270;40.238;18.256;2022-10-16T06:48:50;23.20;99.90
44559;DHT22;30270;40.238;18.256;2022-10-16T06:51:20;23.20;99.90
44559;DHT22;30270;40.238;18.256;2022-10-16T06:53:53;23.20;99.90
44559;DHT22;30270;40.238;18.256;2022-10-16T06:56:28;23.20;99.90
44559;DHT22;30270;40.238;18.256;2022-10-16T06:58:58;23.40;99.90
44559;DHT22;30270;40.238;18.256;2022-10-16T07:01:29;23.40;99.90
44559;DHT22;30270;40.238;18.256;2022-10-16T07:03:57;23.30;99.90
44559;DHT22;30270;40.238;18.256;2022-10-16T07:06:26;23.40;99.90
44559;DHT22;30270;40.238;18.256;2022-10-16T07:08:54;23.30;99.90
44559;DHT22;30270;40.238;18.256;2022-10-16T07:11:23;23.30;99.90
44559;DHT22;30270;40.238;18.256;2022-10-16T07:13:51;23.20;99.90
44559;DHT22;30270;40.238;18.256;2022-10-16T07:16:30;23.20;99.90
44559;DHT22;30270;40.238;18.256;2022-10-16T07:19:00;23.20;99.90
44559;DHT22;30270;40.238;18.256;2022-10-16T07:21:32;23.20;99.90
44559;DHT22;30270;40.238;18.256;2022-10-16T07:24:05;23.20;99.90
44559;DHT22;30270;40.238;18.256;2022-10-16T07:26:35;23.20;99.90
44559;DHT22;30270;40.238;18.256;2022-10-16T07:29:04;23.30;99.90
44559;DHT22;30270;40.238;18.256;2022-10-16T07:31:32;23.30;99.90
44559;DHT22;30270;40.238;18.256;2022-10-16T07:34:00;23.40;99.90
44559;DHT22;30270;40.238;18.256;2022-10-16T07:36:28;23.40;99.90
44559;DHT22;30270;40.238;18.256;2022-10-16T07:38:55;23.50;99.90
44559;DHT22;30270;40.238;18.256;2022-10-16T07:41:24;23.50;99.90
44559;DHT22;30270;40.238;18.256;2022-10-16T07:43:53;23.60;99.90
44559;DHT22;30270;40.238;18.256;2022-10-16T07:46:24;23.60;99.90
44559;DHT22;30270;40.238;18.256;2022-10-16T07:48:51;23.70;99.90
44559;DHT22;30270;40.238;18.256;2022-10-16T07:51:21;23.70;99.90
44559;DHT22;30270;40.238;18.256;2022-10-16T07:53:50;23.80;99.90
44559;DHT22;30270;40.238;18.256;2022-10-16T07:56:20;23.80;99.90
44559;DHT22;30270;40.238;18.256;2022-10-16T07:58:49;23.90;99.90
44559;DHT22;30270;40.238;18.256;2022-10-16T08:01:18;24.00;99.90
44559;DHT22;30270;40.238;18.256;2022-10-16T08:03:48;24.00;99.90
44559;DHT22;30270;40.238;18.256;2022-10-16T08:06:17;24.10;99.90
44559;DHT22;30270;40.238;18.256;2022-10-16T08:08:45;24.10;99.90
44559;DHT22;30270;40.238;18.256;2022-10-16T08:11:14;24.10;99.90
44559;DHT22;30270;40.238;18.256;2022-10-16T08:13:42;24.10;99.90
44559;DHT22;30270;40.238;18.256;2022-10-16T08:16:10;24.00;99.90
44559;DHT22;30270;40.238;18.256;2022-10-16T08:18:39;24.10;99.90
44559;DHT22;30270;40.238;18.256;2022-10-16T08:21:13;24.10;99.90
44559;DHT22;30270;40.238;18.256;2022-10-16T08:23:43;24.10;99.90
44559;DHT22;30270;40.238;18.256;2022-10-16T08:26:12;24.20;99.90
44559;DHT22;30270;40.238;18.256;2022-10-16T08:28:40;24.20;99.90
44559;DHT22;30270;40.238;18.256;2022-10-16T08:31:13;24.20;99.90
44559;DHT22;30270;40.238;18.256;2022-10-16T08:33:46;24.20;99.90
44559;DHT22;30270;40.238;18.256;2022-10-16T08:36:16;24.20;99.90
44559;DHT22;30270;40.238;18.256;2022-10-16T08:38:47;24.20;99.90
44559;DHT22;30270;40.238;18.256;2022-10-16T08:52:21;24.20;99.90
44559;DHT22;30270;40.238;18.256;2022-10-16T08:54:53;24.00;99.90
44559;DHT22;30270;40.238;18.256;2022-10-16T08:57:24;23.70;99.90
44559;DHT22;30270;40.238;18.256;2022-10-16T09:00:00;23.50;99.90
44559;DHT22;30270;40.238;18.256;2022-10-16T09:13:50;23.90;99.90
44559;DHT22;30270;40.238;18.256;2022-10-16T09:16:29;23.80;99.90
44559;DHT22;30270;40.238;18.256;2022-10-16T09:19:20;24.00;99.90
44559;DHT22;30270;40.238;18.256;2022-10-16T09:21:50;24.10;99.90
44559;DHT22;30270;40.238;18.256;2022-10-16T09:24:21;24.30;99.90
44559;DHT22;30270;40.238;18.256;2022-10-16T09:26:50;24.30;99.90
44559;DHT22;30270;40.238;18.256;2022-10-16T09:29:21;24.30;99.90
44559;DHT22;30270;40.238;18.256;2022-10-16T09:31:53;24.40;99.90
44559;DHT22;30270;40.238;18.256;2022-10-16T09:34:36;24.50;99.90
44559;DHT22;30270;40.238;18.256;2022-10-16T09:37:12;24.40;99.90
44559;DHT22;30270;40.238;18.256;2022-10-16T09:39:47;24.40;99.90
44559;DHT22;30270;40.238;18.256;2022-10-16T09:42:22;24.20;99.90
44559;DHT22;30270;40.238;18.256;2022-10-16T09:44:52;24.20;99.90
44559;DHT22;30270;40.238;18.256;2022-10-16T09:47:23;24.20;99.90
44559;DHT22;30270;40.238;18.256;2022-10-16T09:49:57;24.30;99.90
44559;DHT22;30270;40.238;18.256;2022-10-16T09:52:27;24.30;99.90
44559;DHT22;30270;40.238;18.256;2022-10-16T09:54:57;24.30;99.90
44559;DHT22;30270;40.238;18.256;2022-10-16T09:57:26;24.40;99.90
44559;DHT22;30270;40.238;18.256;2022-10-16T09:59:55;24.40;99.90
44559;DHT22;30270;40.238;18.256;2022-10-16T10:02:35;24.40;99.90
44559;DHT22;30270;40.238;18.256;2022-10-16T10:05:06;24.30;99.90
44559;DHT22;30270;40.238;18.256;2022-10-16T10:07:42;24.30;99.90
44559;DHT22;30270;40.238;18.256;2022-10-16T10:10:25;24.30;99.90
44559;DHT22;30270;40.238;18.256;2022-10-16T10:12:54;24.20;99.90
44559;DHT22;30270;40.238;18.256;2022-10-16T10:15:23;24.30;99.90
44559;DHT22;30270;40.238;18.256;2022-10-16T10:17:56;24.20;99.90
44559;DHT22;30270;40.238;18.256;2022-10-16T10:20:26;24.10;99.90
44559;DHT22;30270;40.238;18.256;2022-10-16T10:22:55;24.10;99.90
44559;DHT22;30270;40.238;18.256;2022-10-16T10:25:30;24.10;99.90
44559;DHT22;30270;40.238;18.256;2022-10-16T10:28:37;24.10;99.90
44559;DHT22;30270;40.238;18.256;2022-10-16T10:31:20;24.10;99.90
44559;DHT22;30270;40.238;18.256;2022-10-16T10:36:39;24.20;99.90
44559;DHT22;30270;40.238;18.256;2022-10-16T10:39:32;24.30;99.90
44559;DHT22;30270;40.238;18.256;2022-10-16T10:42:25;24.30;99.90
44559;DHT22;30270;40.238;18.256;2022-10-16T10:50:31;24.30;99.90
44559;DHT22;30270;40.238;18.256;2022-10-16T10:53:36;24.20;99.90
44559;DHT22;30270;40.238;18.256;2022-10-16T10:56:23;24.10;99.90
44559;DHT22;30270;40.238;18.256;2022-10-16T11:01:54;24.10;99.90
44559;DHT22;30270;40.238;18.256;2022-10-16T11:07:04;24.10;99.90
44559;DHT22;30270;40.238;18.256;2022-10-16T11:09:45;24.00;99.90
44559;DHT22;30270;40.238;18.256;2022-10-16T11:12:21;24.00;99.90
44559;DHT22;30270;40.238;18.256;2022-10-16T11:15:07;24.00;99.90
44559;DHT22;30270;40.238;18.256;2022-10-16T11:20:19;24.00;99.90
44559;DHT22;30270;40.238;18.256;2022-10-16T11:22:54;24.00;99.90
44559;DHT22;30270;40.238;18.256;2022-10-16T11:25:27;23.90;99.90
44559;DHT22;30270;40.238;18.256;2022-10-16T11:41:47;23.50;99.90
44559;DHT22;30270;40.238;18.256;2022-10-16T11:53:42;23.40;99.90
44559;DHT22;30270;40.238;18.256;2022-10-16T11:56:16;23.40;99.90
44559;DHT22;30270;40.238;18.256;2022-10-16T11:58:58;23.40;99.90
44559;DHT22;30270;40.238;18.256;2022-10-16T12:04:34;23.40;99.90
44559;DHT22;30270;40.238;18.256;2022-10-16T12:07:10;23.30;99.90
44559;DHT22;30270;40.238;18.256;2022-10-16T12:09:40;23.40;99.90
44559;DHT22;30270;40.238;18.256;2022-10-16T12:12:38;23.40;99.90
44559;DHT22;30270;40.238;18.256;2022-10-16T12:15:26;23.50;99.90
44559;DHT22;30270;40.238;18.256;2022-10-16T12:18:01;23.40;99.90
44559;DHT22;30270;40.238;18.256;2022-10-16T12:20:31;23.50;99.90
44559;DHT22;30270;40.238;18.256;2022-10-16T12:23:04;23.40;99.90
44559;DHT22;30270;40.238;18.256;2022-10-16T12:25:40;23.30;99.90
44559;DHT22;30270;40.238;18.256;2022-10-16T12:30:53;23.20;99.90
44559;DHT22;30270;40.238;18.256;2022-10-16T12:35:54;23.10;99.90
44559;DHT22;30270;40.238;18.256;2022-10-16T12:38:28;23.10;99.90
44559;DHT22;30270;40.238;18.256;2022-10-16T12:41:05;23.00;99.90
44559;DHT22;30270;40.238;18.256;2022-10-16T12:43:44;23.00;99.90
44559;DHT22;30270;40.238;18.256;2022-10-16T12:48:42;23.00;99.90
44559;DHT22;30270;40.238;18.256;2022-10-16T12:51:35;23.00;99.90
44559;DHT22;30270;40.238;18.256;2022-10-16T12:54:10;23.00;99.90
44559;DHT22;30270;40.238;18.256;2022-10-16T13:05:35;22.70;99.90
44559;DHT22;30270;40.238;18.256;2022-10-16T13:19:26;22.50;99.90
44559;DHT22;30270;40.238;18.256;2022-10-16T13:22:03;22.40;99.90
44559;DHT22;30270;40.238;18.256;2022-10-16T13:24:43;22.40;99.90
44559;DHT22;30270;40.238;18.256;2022-10-16T13:30:00;22.40;99.90
44559;DHT22;30270;40.238;18.256;2022-10-16T13:32:29;22.30;99.90
44559;DHT22;30270;40.238;18.256;2022-10-16T13:34:58;22.30;99.90
44559;DHT22;30270;40.238;18.256;2022-10-16T13:37:28;22.30;99.90
44559;DHT22;30270;40.238;18.256;2022-10-16T13:40:19;22.30;99.90
44559;DHT22;30270;40.238;18.256;2022-10-16T13:42:48;22.20;99.90
44559;DHT22;30270;40.238;18.256;2022-10-16T13:45:22;22.20;99.90
44559;DHT22;30270;40.238;18.256;2022-10-16T13:47:50;22.20;99.90
44559;DHT22;30270;40.238;18.256;2022-10-16T13:50:18;22.10;99.90
44559;DHT22;30270;40.238;18.256;2022-10-16T13:52:46;22.00;99.90
44559;DHT22;30270;40.238;18.256;2022-10-16T13:55:16;22.10;99.90
44559;DHT22;30270;40.238;18.256;2022-10-16T13:57:45;22.00;99.90
44559;DHT22;30270;40.238;18.256;2022-10-16T14:00:25;22.10;99.90
44559;DHT22;30270;40.238;18.256;2022-10-16T14:03:14;22.10;99.90
44559;DHT22;30270;40.238;18.256;2022-10-16T14:05:51;22.10;99.90
44559;DHT22;30270;40.238;18.256;2022-10-16T14:08:20;22.00;99.90
44559;DHT22;30270;40.238;18.256;2022-10-16T14:10:52;22.00;99.90
44559;DHT22;30270;40.238;18.256;2022-10-16T14:13:39;21.80;99.90
44559;DHT22;30270;40.238;18.256;2022-10-16T14:16:20;21.90;99.90
44559;DHT22;30270;40.238;18.256;2022-10-16T14:19:05;21.80;99.90
44559;DHT22;30270;40.238;18.256;2022-10-16T14:21:40;21.70;99.90
44559;DHT22;30270;40.238;18.256;2022-10-16T14:24:32;21.70;99.90
44559;DHT22;30270;40.238;18.256;2022-10-16T14:27:01;21.70;99.90
44559;DHT22;30270;40.238;18.256;2022-10-16T14:29:32;21.70;99.90
44559;DHT22;30270;40.238;18.256;2022-10-16T14:32:04;21.70;99.90
44559;DHT22;30270;40.238;18.256;2022-10-16T14:34:38;21.70;99.90
44559;DHT22;30270;40.238;18.256;2022-10-16T14:37:33;21.70;99.90
44559;DHT22;30270;40.238;18.256;2022-10-16T14:40:03;21.70;99.90
44559;DHT22;30270;40.238;18.256;2022-10-16T14:42:32;21.70;99.90
44559;DHT22;30270;40.238;18.256;2022-10-16T14:45:00;21.60;99.90
44559;DHT22;30270;40.238;18.256;2022-10-16T14:47:28;21.60;99.90
44559;DHT22;30270;40.238;18.256;2022-10-16T14:49:56;21.60;99.90
44559;DHT22;30270;40.238;18.256;2022-10-16T14:52:26;21.50;99.90
44559;DHT22;30270;40.238;18.256;2022-10-16T14:54:54;21.40;99.90
44559;DHT22;30270;40.238;18.256;2022-10-16T14:57:27;21.40;99.90
44559;DHT22;30270;40.238;18.256;2022-10-16T14:59:56;21.30;99.90
44559;DHT22;30270;40.238;18.256;2022-10-16T15:02:35;21.30;99.90
44559;DHT22;30270;40.238;18.256;2022-10-16T15:05:30;21.30;99.90
44559;DHT22;30270;40.238;18.256;2022-10-16T15:07:59;21.20;99.90
44559;DHT22;30270;40.238;18.256;2022-10-16T15:10:28;21.10;99.90
44559;DHT22;30270;40.238;18.256;2022-10-16T15:12:57;21.00;99.90
44559;DHT22;30270;40.238;18.256;2022-10-16T15:15:37;21.10;99.90
44559;DHT22;30270;40.238;18.256;2022-10-16T15:18:06;21.10;99.90
44559;DHT22;30270;40.238;18.256;2022-10-16T15:20:36;21.10;99.90
44559;DHT22;30270;40.238;18.256;2022-10-16T15:23:15;21.10;99.90
44559;DHT22;30270;40.238;18.256;2022-10-16T15:25:48;21.10;99.90
44559;DHT22;30270;40.238;18.256;2022-10-16T15:28:17;21.00;99.90
44559;DHT22;30270;40.238;18.256;2022-10-16T15:30:46;21.00;99.90
44559;DHT22;30270;40.238;18.256;2022-10-16T15:33:18;21.00;99.90
44559;DHT22;30270;40.238;18.256;2022-10-16T15:35:48;21.00;99.90
44559;DHT22;30270;40.238;18.256;2022-10-16T15:38:17;20.90;99.90
44559;DHT22;30270;40.238;18.256;2022-10-16T15:40:46;20.90;99.90
44559;DHT22;30270;40.238;18.256;2022-10-16T15:43:15;20.90;99.90
44559;DHT22;30270;40.238;18.256;2022-10-16T15:45:43;20.90;99.90
44559;DHT22;30270;40.238;18.256;2022-10-16T15:48:12;20.90;99.90
44559;DHT22;30270;40.238;18.256;2022-10-16T15:50:40;20.80;99.90
44559;DHT22;30270;40.238;18.256;2022-10-16T15:53:11;20.80;99.90
44559;DHT22;30270;40.238;18.256;2022-10-16T15:55:39;20.80;99.90
44559;DHT22;30270;40.238;18.256;2022-10-16T15:58:07;20.80;99.90
44559;DHT22;30270;40.238;18.256;2022-10-16T16:00:34;20.70;99.90
44559;DHT22;30270;40.238;18.256;2022-10-16T16:03:03;20.70;99.90
44559;DHT22;30270;40.238;18.256;2022-10-16T16:05:31;20.70;99.90
44559;DHT22;30270;40.238;18.256;2022-10-16T16:08:00;20.70;99.90
44559;DHT22;30270;40.238;18.256;2022-10-16T16:10:28;20.60;99.90
44559;DHT22;30270;40.238;18.256;2022-10-16T16:12:58;20.60;99.90
44559;DHT22;30270;40.238;18.256;2022-10-16T16:15:26;20.50;99.90
44559;DHT22;30270;40.238;18.256;2022-10-16T16:17:54;20.50;99.90
44559;DHT22;30270;40.238;18.256;2022-10-16T16:20:22;20.50;99.90
44559;DHT22;30270;40.238;18.256;2022-10-16T16:22:51;20.50;99.90
44559;DHT22;30270;40.238;18.256;2022-10-16T16:25:19;20.40;99.90
44559;DHT22;30270;40.238;18.256;2022-10-16T16:27:52;20.40;99.90
44559;DHT22;30270;40.238;18.256;2022-10-16T16:30:20;20.40;99.90
44559;DHT22;30270;40.238;18.256;2022-10-16T16:32:49;20.40;99.90
44559;DHT22;30270;40.238;18.256;2022-10-16T16:35:18;20.40;99.90
44559;DHT22;30270;40.238;18.256;2022-10-16T16:37:47;20.40;99.90
44559;DHT22;30270;40.238;18.256;2022-10-16T16:40:15;20.30;99.90
44559;DHT22;30270;40.238;18.256;2022-10-16T16:42:43;20.30;99.90
44559;DHT22;30270;40.238;18.256;2022-10-16T16:45:11;20.30;99.90
44559;DHT22;30270;40.238;18.256;2022-10-16T16:47:39;20.20;99.90
44559;DHT22;30270;40.238;18.256;2022-10-16T16:50:07;20.20;99.90
44559;DHT22;30270;40.238;18.256;2022-10-16T16:52:35;20.20;99.90
44559;DHT22;30270;40.238;18.256;2022-10-16T16:55:06;20.10;99.90
44559;DHT22;30270;40.238;18.256;2022-10-16T16:57:34;20.10;99.90
44559;DHT22;30270;40.238;18.256;2022-10-16T17:00:02;20.00;99.90
44559;DHT22;30270;40.238;18.256;2022-10-16T17:02:30;20.10;99.90
44559;DHT22;30270;40.238;18.256;2022-10-16T17:04:58;20.00;99.90
44559;DHT22;30270;40.238;18.256;2022-10-16T17:07:26;20.00;99.90
44559;DHT22;30270;40.238;18.256;2022-10-16T17:09:57;20.00;99.90
44559;DHT22;30270;40.238;18.256;2022-10-16T17:12:25;20.00;99.90
44559;DHT22;30270;40.238;18.256;2022-10-16T17:14:53;19.90;99.90
44559;DHT22;30270;40.238;18.256;2022-10-16T17:17:21;19.90;99.90
44559;DHT22;30270;40.238;18.256;2022-10-16T17:19:50;19.90;99.90
44559;DHT22;30270;40.238;18.256;2022-10-16T17:22:19;19.90;99.90
44559;DHT22;30270;40.238;18.256;2022-10-16T17:24:50;19.80;99.90
44559;DHT22;30270;40.238;18.256;2022-10-16T17:27:19;19.90;99.90
44559;DHT22;30270;40.238;18.256;2022-10-16T17:29:50;19.90;99.90
44559;DHT22;30270;40.238;18.256;2022-10-16T17:32:18;19.90;99.90
44559;DHT22;30270;40.238;18.256;2022-10-16T17:34:48;19.80;99.90
44559;DHT22;30270;40.238;18.256;2022-10-16T17:37:16;19.80;99.90
44559;DHT22;30270;40.238;18.256;2022-10-16T17:39:44;19.80;99.90
44559;DHT22;30270;40.238;18.256;2022-10-16T17:42:12;19.80;99.90